ENAN

Details ICAO ENAN (ANX)
Name ANDOYA
Region Norway
Timezone Europe/Oslo (UTC+1.0)
Plans Departing 13
Arriving 16
Stats Elevation 43 ft / 13 m (AMSL)
Location 69.293353° 16.137750°
Runways 2
Magnetic Variation 7.091° E
Sunrise Unknown / Unknown
Sunset Unknown / Unknown
Advertisement - Login to hide

Runways

ID Width Length Bearing (true) Bearing (mag) Surface Threshold Offset Overrun Length
03 148 ft / 45 m 5,468 ft / 1,667 m 31.41° 24.32° Asphalt 0 ft / 0 m 0 ft / 0 m
14 148 ft / 45 m 9,830 ft / 2,996 m 149.75° 142.66° Asphalt 823 ft / 251 m 0 ft / 0 m
21 148 ft / 45 m 5,468 ft / 1,667 m 211.43° 204.34° Asphalt 0 ft / 0 m 0 ft / 0 m
32 148 ft / 45 m 9,830 ft / 2,996 m 329.78° 322.69° Asphalt 886 ft / 270 m 0 ft / 0 m

Approach Navaids

Runway Type Ident Frequency Range Bearing (true) Bearing (mag) Slope Elevation
14 Localiser AN 109.10 MHz 18 nm / 33 km 149.79° 142.70° - 29 ft / 9 m (AMSL)

Map

Weather


0- 5 10 15 20 25 30 35+ Temperature / ° C

Clouds and Precipitation
Forecast for 2017-12-14 18:00 UTC. Updated 32 minutes ago

Ground ~20,000 ft ~40,000 ft Winds

METAR

ENAN 141520Z 20007KT 9999 FEW040 M02/M03 Q0987

TAF

TAF TAF ENAN 141100Z 1412/1512 20008KT 9999 FEW006 SCT030 TEMPO 1412/1503 2000 SHSN VV008

Frequencies

Tower 118.20 MHz TWR
Tower 122.10 MHz TWR
Approach 121.10 MHz GCA
Tower 118.70 MHz TWR
Approach 119.10 MHz GCA
Approach 123.30 MHz GCA
Warning: Do not use this data for real-world aviation or navigation. No guarantee of current accuracy is given.